Portada
METAR-TAF:

METAR-TAF

Aeroports :

John Wayne-Orange County Airport

Santa Ana, Califòrnia, Estats Units d'Amèrica

latitud: 33-40-48N, longitud: 117-51-59W, altitud: 16 m

Observació

L'informe es va fer fa 20 minuts, a les 08:53 UTC
Vent calma
Temperatura 21°C
Humitat 78%
Pressió 1011 hPa
Visibilitat: 16.1 km
Cel clar

METAR: KSNA 230853Z AUTO 00000KT 10SM CLR 21/17 A2986 RMK AO2 SLP111 T02110167 58004

Hora: 02:13 (09:13 UTC)

Pronòstic

L'informe es va fer fa 3 hores i 38 minuts, a les 05:35 UTC
Pronòstic vàlid del 23 a les 06 UTC al 24 a les 06 UTC
Vent 4 kt amb direcció variable
Visibilitat: 10 km
Escasses núvols a una alçada de 12000 ft
A partir de les 23 a les 1800 UTC
Vent 9 kt del Sud-Oest
Visibilitat: 10 km
Núvols disperses a una alçada de 12000 ft
A partir de les 24 a les 0300 UTC
Vent 4 kt amb direcció variable
Visibilitat: 10 km
Núvols disperses a una alçada de 15000 ft

TAF: KSNA 230535Z 2306/2406 VRB04KT P6SM FEW120 FM231800 22009KT P6SM SCT120 FM240300 VRB04KT P6SM SCT150

Observacions i pronòstics meteorològics de més de 4000 aeroports (METAR i TAF).

Les estacions disponibles són els punts grocs i vermells al mapa.

Posi el ratolí al punt desitjat per veure el nom de l'estació.

Feu clic per veure les observacions i els pronòstics meteorològics.

Per canviar el mapa: feu clic els botons verds amb una creu de color negre per apropar; al botó verd amb un guió per allunyar la imatge; o en les fletxes verdes per a mapes adjacents.


METAR-TAF: